createdAt,value
2022-10-18T00:01:20.173Z,1024.75
2022-10-18T00:31:20.139Z,1024.88
2022-10-18T01:01:23.225Z,1024.81
2022-10-18T01:31:20.166Z,1024.72
2022-10-18T02:01:20.161Z,1024.53
2022-10-18T02:31:20.165Z,1024.45
2022-10-18T03:01:20.231Z,1024.5
2022-10-18T03:31:20.271Z,1024.42
2022-10-18T04:01:20.286Z,1024.3
2022-10-18T04:31:20.183Z,1024.22
2022-10-18T05:01:20.238Z,1024.14
2022-10-18T05:31:20.203Z,1023.87
2022-10-18T06:01:20.186Z,1024.05
2022-10-18T06:31:20.174Z,1024.2
2022-10-18T07:01:20.235Z,1024.2
2022-10-18T07:31:20.184Z,1024.27
2022-10-18T08:01:20.254Z,1024.4
2022-10-18T08:31:20.195Z,1024.62
2022-10-18T09:01:20.212Z,1024.47
2022-10-18T09:31:20.215Z,1024.46
2022-10-18T10:01:20.227Z,1024.59
2022-10-18T10:31:20.223Z,1024.63
2022-10-18T11:01:20.233Z,1024.48
2022-10-18T11:31:20.240Z,1024.59
2022-10-18T12:01:23.401Z,1024.32
2022-10-18T12:31:20.252Z,1024.29
2022-10-18T13:01:20.289Z,1024.2
2022-10-18T13:31:20.247Z,1024.29
2022-10-18T14:01:20.315Z,1024.53
2022-10-18T14:31:20.251Z,1024.68
2022-10-18T15:01:20.286Z,1024.45
2022-10-18T15:31:20.262Z,1024.5
2022-10-18T16:01:20.366Z,1024.6
2022-10-18T16:31:20.266Z,1024.75
2022-10-18T17:01:20.391Z,1025.12
2022-10-18T17:31:20.286Z,1025.45
2022-10-18T18:01:20.281Z,1025.59
2022-10-18T18:56:33.810Z,1025.67
2022-10-18T19:26:33.694Z,1025.66
2022-10-18T19:56:33.694Z,1025.68
2022-10-18T20:26:33.688Z,1025.79
2022-10-18T20:56:33.692Z,1025.85
2022-10-18T21:26:33.699Z,1025.84
2022-10-18T21:56:33.688Z,1025.74
2022-10-18T22:26:33.712Z,1025.65
2022-10-18T22:56:33.717Z,1025.59
2022-10-18T23:26:33.729Z,1025.41
2022-10-18T23:56:33.716Z,1025.54
